Naugatuck River @ Waterbury, Ct

Naugatuck River at Waterbury
 Total Drainage Area: 174 sq. miles 
 Drainage Area Controlled by Corps Dams: 136 sq. miles (78%) 
 Warning Flow/Stage: 2,190 cfs / 10.0 feet 
 Flood Flow/Stage: 5,250 cfs / 12.8 feet 
Date Time
(Eastern)
Stage
(ft)
Flow
(cfs)
CSM
(cfs / sq. mi.)
Jun-25 01:30 am 7.07 132 .8
Jun-25 12:30 am 7.08 135 .8
Jun-24 11:30 pm 7.09 138 .8
Jun-24 10:30 pm 7.10 141 .8
Jun-24 09:30 pm 7.12 148 .9
Jun-24 08:30 pm 7.13 151 .9
Jun-24 07:30 pm 7.14 154 .9
Jun-24 06:30 pm 7.16 161 .9
Jun-24 05:30 pm 7.17 164 .9
Jun-24 04:30 pm 7.19 171 1.0
Jun-24 03:30 pm 7.20 175 1.0
Jun-24 02:30 pm 7.22 182 1.1
Jun-24 01:30 pm 7.24 189 1.1
Jun-24 12:30 pm 7.26 197 1.1
Jun-24 11:30 am 7.29 208 1.2
Jun-24 10:30 am 7.31 216 1.2
Jun-24 09:30 am 7.33 224 1.3
Jun-24 08:30 am 7.37 241 1.4
Jun-24 07:30 am 7.39 250 1.4
Jun-24 06:30 am 7.42 264 1.5
Jun-24 05:30 am 7.43 268 1.5
Jun-24 04:30 am 7.43 268 1.5
Jun-24 03:30 am 7.40 254 1.5
Jun-24 02:30 am 7.35 233 1.3
Jun-24 01:30 am 7.35 233 1.3
Report Generated June 25, 2024 02:17 am